EmailTwitter


Surface observations / United Kingdom / EGLL (03772)

Regions: Quebec | Canada | USA | Europe | France | UK | Elsewhere
Station
Display
Info & Location for EGLL (03772) | Help decoding METAR

Weather Conditions observed on 2017/04/30 at 23:50 UTC at LONDON/HEATHROW, UK (EGLL)

Sky conditions: overcast.

Obstruction(s) to Vision: light rain.

Temperature: 10.0 Celsius.

Dewpoint: 9.0 Celsius.

Relative Humidity: 93%

Winds: South-southeast at 13 km/h or 7 knots.

Mean Sea level Pressure: 99.90 kilopascals.

Horizontal visibility: 6.21 statute miles or 9.94 kilometers.

Height of the Ceiling: 335 metres ( 1100 feet ).

Coded METAR:

EGLL 302350Z AUTO 16007KT 9999 -RA BKN011 BKN027 OVC048 10/09 Q0999 TEMPO

FEW014 SCT024=